createdAt,value
2019-04-26T00:01:19.461Z,8.63
2019-04-26T00:03:50.108Z,8.20
2019-04-26T00:06:19.960Z,8.33
2019-04-26T00:08:50.930Z,8.87
2019-04-26T00:11:25.339Z,8.30
2019-04-26T00:14:14.561Z,8.03
2019-04-26T00:16:46.404Z,7.97
2019-04-26T00:19:15.968Z,8.20
2019-04-26T00:21:45.655Z,8.10
2019-04-26T00:24:15.473Z,7.63
2019-04-26T00:26:44.839Z,8.80
2019-04-26T00:29:14.763Z,7.80
2019-04-26T00:31:44.354Z,8.23
2019-04-26T00:34:13.716Z,8.27
2019-04-26T00:36:43.269Z,8.27
2019-04-26T00:39:13.324Z,7.70
2019-04-26T00:41:43.802Z,7.60
2019-04-26T00:44:13.860Z,7.77
2019-04-26T00:46:47.140Z,7.93
2019-04-26T00:49:17.844Z,7.50
2019-04-26T00:51:48.211Z,8.20
2019-04-26T00:54:20.171Z,8.87
2019-04-26T00:56:50.352Z,8.27
2019-04-26T00:59:20.852Z,8.77
2019-04-26T01:01:51.859Z,7.93
2019-04-26T01:04:23.068Z,8.10
2019-04-26T01:06:54.141Z,8.40
2019-04-26T01:09:24.122Z,8.83
2019-04-26T01:11:53.501Z,8.10
2019-04-26T01:14:22.889Z,8.30
2019-04-26T01:16:52.191Z,7.93
2019-04-26T01:19:24.554Z,8.00
2019-04-26T01:21:59.849Z,7.97
2019-04-26T01:24:32.170Z,9.20
2019-04-26T01:27:04.443Z,8.40
2019-04-26T01:29:35.919Z,7.90
2019-04-26T01:32:13.617Z,8.23
2019-04-26T01:34:45.890Z,8.30
2019-04-26T01:37:15.574Z,8.10
2019-04-26T01:39:49.540Z,8.93
2019-04-26T01:42:24.260Z,8.10
2019-04-26T01:44:58.420Z,8.70
2019-04-26T01:47:28.426Z,7.57
2019-04-26T01:49:58.444Z,8.50
2019-04-26T01:52:27.856Z,8.40
2019-04-26T01:55:15.495Z,7.83
2019-04-26T01:57:44.892Z,8.67
2019-04-26T02:00:32.989Z,8.97
2019-04-26T02:03:04.024Z,8.97
2019-04-26T02:05:33.457Z,8.07
2019-04-26T02:08:02.919Z,8.47
2019-04-26T02:10:32.750Z,8.50
2019-04-26T02:13:02.364Z,8.20
2019-04-26T02:15:33.643Z,8.93
2019-04-26T02:18:04.293Z,8.47
2019-04-26T02:20:45.431Z,8.50
2019-04-26T02:23:32.127Z,8.83
2019-04-26T02:26:19.415Z,8.10
2019-04-26T02:28:51.094Z,8.70
2019-04-26T02:31:22.416Z,8.90
2019-04-26T02:33:52.989Z,8.90
2019-04-26T02:36:23.298Z,8.93
2019-04-26T02:38:55.711Z,8.93
2019-04-26T02:41:27.439Z,8.90
2019-04-26T02:43:59.778Z,9.33
2019-04-26T02:46:34.895Z,8.73
2019-04-26T02:49:07.432Z,9.07
2019-04-26T02:51:42.263Z,8.80
2019-04-26T02:54:47.615Z,8.97
2019-04-26T02:57:29.758Z,8.67
2019-04-26T03:00:05.956Z,9.07
2019-04-26T03:02:37.280Z,8.90
2019-04-26T03:05:08.709Z,9.23
2019-04-26T03:07:49.628Z,8.90
2019-04-26T03:10:21.899Z,9.43
2019-04-26T03:12:54.222Z,9.03
2019-04-26T03:15:38.796Z,9.07
2019-04-26T03:18:31.717Z,9.00
2019-04-26T03:21:07.896Z,9.20
2019-04-26T03:23:57.546Z,9.23
2019-04-26T03:26:37.486Z,9.30
2019-04-26T03:29:10.924Z,9.70
2019-04-26T03:32:05.637Z,9.30
2019-04-26T03:34:54.184Z,9.67
2019-04-26T03:37:34.489Z,8.77
2019-04-26T03:40:36.193Z,9.20
2019-04-26T03:43:08.065Z,8.90
2019-04-26T03:46:03.879Z,9.10
2019-04-26T03:49:01.347Z,8.37
2019-04-26T03:51:43.047Z,8.73
2019-04-26T03:54:18.934Z,9.47
2019-04-26T03:56:53.545Z,9.27
2019-04-26T03:59:36.800Z,9.50
2019-04-26T04:02:11.815Z,9.83
2019-04-26T04:04:57.667Z,8.97
2019-04-26T04:07:39.407Z,9.77
2019-04-26T04:10:15.534Z,9.13
2019-04-26T04:13:03.086Z,9.10
2019-04-26T04:15:37.924Z,9.47
2019-04-26T04:18:11.002Z,9.53
2019-04-26T04:21:14.251Z,9.10
2019-04-26T04:23:58.662Z,9.73
2019-04-26T04:26:36.264Z,8.80
2019-04-26T04:29:42.813Z,9.37
2019-04-26T04:32:27.778Z,9.13
2019-04-26T04:35:00.048Z,8.90
2019-04-26T04:37:32.368Z,8.80
2019-04-26T04:40:17.921Z,8.67
2019-04-26T04:42:57.540Z,8.80
2019-04-26T04:45:45.513Z,9.27
2019-04-26T04:48:18.765Z,9.07
2019-04-26T04:51:10.830Z,9.33
2019-04-26T04:54:01.341Z,9.20
2019-04-26T04:56:54.585Z,10.53
2019-04-26T04:59:50.287Z,8.70
2019-04-26T05:02:48.647Z,9.03
2019-04-26T05:05:31.251Z,8.63
2019-04-26T05:08:09.250Z,9.20
2019-04-26T05:10:48.233Z,8.90
2019-04-26T05:13:32.135Z,9.33
2019-04-26T05:16:34.834Z,9.60
2019-04-26T05:19:29.213Z,9.70
2019-04-26T05:22:13.742Z,8.90
2019-04-26T05:24:49.104Z,9.37
2019-04-26T05:27:39.585Z,8.77
2019-04-26T05:30:34.337Z,9.10
2019-04-26T05:33:09.393Z,9.07
2019-04-26T05:35:53.114Z,8.80
2019-04-26T05:38:28.354Z,7.87
2019-04-26T05:41:17.666Z,8.57
2019-04-26T05:44:03.406Z,9.43
2019-04-26T05:47:16.458Z,9.47
2019-04-26T05:50:05.411Z,9.47
2019-04-26T05:52:53.541Z,9.10
2019-04-26T05:55:39.167Z,9.33
2019-04-26T05:58:11.514Z,9.97
2019-04-26T06:00:54.336Z,9.30
2019-04-26T06:03:39.375Z,8.63
2019-04-26T06:06:21.992Z,8.60
2019-04-26T06:09:01.698Z,9.37
2019-04-26T06:11:38.850Z,8.43
2019-04-26T06:14:18.520Z,9.07
2019-04-26T06:17:07.202Z,9.37
2019-04-26T06:19:43.848Z,9.03
2019-04-26T06:22:17.258Z,8.60
2019-04-26T06:28:04.959Z,10.13
2019-04-26T06:31:04.731Z,8.87
2019-04-26T06:33:37.057Z,9.37
2019-04-26T06:36:11.132Z,8.77
2019-04-26T06:39:13.942Z,9.13
2019-04-26T06:42:13.761Z,8.23
2019-04-26T06:45:00.418Z,8.20
2019-04-26T06:47:43.686Z,8.93
2019-04-26T06:50:38.556Z,8.83
2019-04-26T06:53:23.749Z,8.43
2019-04-26T06:56:15.505Z,8.17
2019-04-26T06:58:57.870Z,8.90
2019-04-26T07:01:45.177Z,8.47
2019-04-26T07:04:26.149Z,8.60
2019-04-26T07:07:01.078Z,9.00
2019-04-26T07:09:36.080Z,8.57
2019-04-26T07:12:15.505Z,8.73
2019-04-26T07:15:03.827Z,8.90
2019-04-26T07:17:39.150Z,8.87
2019-04-26T07:20:13.066Z,8.80
2019-04-26T07:22:52.757Z,8.63
2019-04-26T07:25:32.449Z,8.27
2019-04-26T07:28:19.765Z,8.30
2019-04-26T07:30:57.565Z,8.03
2019-04-26T07:33:49.213Z,8.43
2019-04-26T07:36:21.490Z,7.50
2019-04-26T07:39:19.949Z,8.23
2019-04-26T07:42:01.764Z,8.17
2019-04-26T07:44:53.545Z,8.33
2019-04-26T07:47:42.439Z,8.07
2019-04-26T07:50:29.327Z,8.10
2019-04-26T07:53:26.958Z,7.93
2019-04-26T07:56:07.988Z,7.97
2019-04-26T07:59:15.015Z,7.57
2019-04-26T08:02:09.660Z,8.53
2019-04-26T08:07:28.012Z,8.47
2019-04-26T08:10:14.801Z,8.67
2019-04-26T08:12:47.188Z,8.33
2019-04-26T08:15:25.115Z,8.87
2019-04-26T08:18:10.803Z,9.17
2019-04-26T08:20:48.317Z,8.40
2019-04-26T08:23:38.506Z,8.10
2019-04-26T08:26:01.951Z,8.63
2019-04-26T08:28:33.591Z,8.00
2019-04-26T08:31:07.511Z,7.97
2019-04-26T08:33:48.513Z,7.83
2019-04-26T08:36:15.442Z,7.90
2019-04-26T08:38:48.877Z,7.83
2019-04-26T08:41:22.164Z,7.27
2019-04-26T08:44:11.853Z,8.10
2019-04-26T08:46:44.279Z,7.67
2019-04-26T08:49:17.601Z,7.30
2019-04-26T08:51:52.187Z,7.40
2019-04-26T08:54:23.947Z,7.57
2019-04-26T08:56:56.249Z,8.00
2019-04-26T08:59:31.542Z,8.07
2019-04-26T09:02:22.173Z,7.97
2019-04-26T09:05:07.901Z,8.00
2019-04-26T09:07:41.946Z,7.47
2019-04-26T09:10:14.264Z,7.33
2019-04-26T09:12:46.555Z,7.43
2019-04-26T09:15:18.819Z,7.37
2019-04-26T09:17:48.221Z,7.13
2019-04-26T09:20:28.189Z,7.47
2019-04-26T09:22:56.592Z,7.77
2019-04-26T09:25:39.331Z,7.83
2019-04-26T09:28:13.227Z,7.50
2019-04-26T09:30:56.286Z,7.90
2019-04-26T09:33:27.322Z,7.60
2019-04-26T09:35:56.690Z,7.33
2019-04-26T09:38:26.260Z,7.87
2019-04-26T09:40:56.287Z,7.70
2019-04-26T09:43:30.848Z,7.30
2019-04-26T09:46:04.801Z,7.37
2019-04-26T09:48:36.807Z,7.17
2019-04-26T09:51:08.335Z,7.07
2019-04-26T09:53:39.468Z,6.67
2019-04-26T09:56:08.807Z,6.70
2019-04-26T09:58:38.198Z,8.23
2019-04-26T10:01:07.666Z,7.23
2019-04-26T10:03:36.987Z,7.20
2019-04-26T10:06:08.156Z,7.70
2019-04-26T10:08:37.860Z,6.83
2019-04-26T10:11:09.621Z,6.97
2019-04-26T10:13:44.810Z,6.80
2019-04-26T10:16:15.813Z,6.63
2019-04-26T10:18:46.812Z,7.57
2019-04-26T10:21:16.268Z,7.17
2019-04-26T10:23:45.623Z,7.20
2019-04-26T10:26:15.088Z,7.07
2019-04-26T10:28:46.792Z,8.03
2019-04-26T10:31:17.192Z,7.50
2019-04-26T10:33:46.900Z,6.80
2019-04-26T10:36:16.280Z,6.13
2019-04-26T10:38:45.583Z,7.30
2019-04-26T10:41:15.012Z,6.70
2019-04-26T10:43:44.425Z,6.17
2019-04-26T10:46:13.783Z,6.20
2019-04-26T10:48:45.432Z,6.40
2019-04-26T10:51:17.472Z,6.33
2019-04-26T10:53:54.104Z,6.53
2019-04-26T10:56:41.636Z,6.47
2019-04-26T10:59:12.657Z,6.10
2019-04-26T11:01:42.196Z,6.07
2019-04-26T11:04:11.767Z,6.07
2019-04-26T11:06:41.222Z,6.30
2019-04-26T11:09:14.199Z,6.30
2019-04-26T11:11:43.718Z,6.47
2019-04-26T11:14:13.035Z,5.97
2019-04-26T11:16:43.861Z,6.63
2019-04-26T11:19:13.303Z,6.47
2019-04-26T11:21:44.131Z,6.30
2019-04-26T11:24:15.189Z,6.67
2019-04-26T11:26:45.473Z,5.93
2019-04-26T11:29:14.839Z,6.40
2019-04-26T11:31:45.681Z,6.27
2019-04-26T11:34:15.302Z,6.23
2019-04-26T11:36:44.804Z,5.50
2019-04-26T11:39:16.198Z,5.77
2019-04-26T11:41:45.585Z,6.00
2019-04-26T11:44:14.945Z,6.13
2019-04-26T11:46:45.365Z,6.10
2019-04-26T11:49:15.122Z,5.60
2019-04-26T11:51:44.481Z,5.97
2019-04-26T11:54:16.935Z,5.70
2019-04-26T11:56:45.090Z,6.13
2019-04-26T11:59:14.494Z,5.77
2019-04-26T12:01:43.902Z,5.70
2019-04-26T12:04:14.953Z,5.67
2019-04-26T12:06:48.637Z,5.77
2019-04-26T12:09:31.915Z,6.30
2019-04-26T12:12:04.848Z,5.63
2019-04-26T12:14:34.389Z,5.63
2019-04-26T12:17:05.062Z,5.57
2019-04-26T12:19:34.738Z,5.63
2019-04-26T12:22:08.149Z,5.50
2019-04-26T12:24:35.286Z,5.57
2019-04-26T12:27:04.691Z,5.03
2019-04-26T12:29:34.190Z,6.10
2019-04-26T12:32:03.593Z,6.47
2019-04-26T12:34:32.814Z,5.80
2019-04-26T12:37:02.184Z,6.43
2019-04-26T12:39:32.333Z,6.27
2019-04-26T12:42:04.336Z,5.30
2019-04-26T12:44:44.580Z,5.80
2019-04-26T12:47:18.293Z,5.70
2019-04-26T12:49:47.746Z,5.17
2019-04-26T12:52:21.223Z,5.07
2019-04-26T12:54:48.186Z,5.10
2019-04-26T12:57:17.481Z,5.37
2019-04-26T12:59:46.945Z,5.93
2019-04-26T13:02:20.681Z,5.73
2019-04-26T13:04:47.531Z,5.23
2019-04-26T13:07:23.950Z,4.77
2019-04-26T13:10:10.259Z,5.27
2019-04-26T13:12:57.486Z,5.40
2019-04-26T13:15:40.212Z,5.40
2019-04-26T13:18:11.271Z,5.13
2019-04-26T13:20:40.814Z,5.00
2019-04-26T13:23:10.177Z,5.40
2019-04-26T13:25:40.755Z,5.10
2019-04-26T13:28:10.094Z,5.37
2019-04-26T13:30:40.059Z,5.10
2019-04-26T13:33:10.086Z,5.27
2019-04-26T13:35:41.388Z,5.27
2019-04-26T13:38:10.522Z,4.93
2019-04-26T13:40:40.799Z,4.80
2019-04-26T13:43:10.165Z,5.07
2019-04-26T13:45:41.168Z,6.17
2019-04-26T13:48:19.284Z,5.30
2019-04-26T13:51:01.389Z,5.13
2019-04-26T13:53:30.639Z,5.63
2019-04-26T13:56:02.084Z,5.30
2019-04-26T13:58:31.015Z,5.20
2019-04-26T14:01:00.415Z,4.60
2019-04-26T14:03:31.639Z,5.13
2019-04-26T14:06:01.029Z,4.53
2019-04-26T14:08:30.798Z,4.93
2019-04-26T14:11:00.213Z,5.00
2019-04-26T14:13:29.659Z,5.60
2019-04-26T14:15:59.167Z,5.87
2019-04-26T14:18:28.576Z,6.43
2019-04-26T14:20:58.948Z,5.67
2019-04-26T14:23:33.441Z,5.50
2019-04-26T14:26:05.319Z,4.90
2019-04-26T14:28:34.780Z,4.67
2019-04-26T14:31:04.222Z,5.13
2019-04-26T14:33:33.581Z,5.53
2019-04-26T14:36:02.927Z,5.47
2019-04-26T14:38:39.340Z,4.67
2019-04-26T14:41:04.643Z,5.40
2019-04-26T14:43:40.854Z,5.20
2019-04-26T14:46:05.657Z,5.30
2019-04-26T14:48:36.318Z,5.30
2019-04-26T14:51:08.227Z,4.83
2019-04-26T14:53:38.037Z,5.77
2019-04-26T14:56:07.546Z,5.17
2019-04-26T14:58:36.815Z,5.10
2019-04-26T15:01:07.831Z,5.30
2019-04-26T15:03:38.891Z,5.40
2019-04-26T15:06:20.070Z,4.80
2019-04-26T15:08:48.891Z,5.40
2019-04-26T15:11:18.471Z,5.30
2019-04-26T15:13:48.330Z,5.70
2019-04-26T15:16:17.615Z,5.77
2019-04-26T15:18:47.020Z,5.80
2019-04-26T15:21:16.665Z,5.97
2019-04-26T15:23:45.972Z,6.20
2019-04-26T15:26:18.559Z,5.57
2019-04-26T15:28:50.356Z,5.50
2019-04-26T15:31:21.724Z,5.37
2019-04-26T15:33:52.993Z,6.40
2019-04-26T15:36:23.260Z,6.87
2019-04-26T15:38:53.529Z,8.70
2019-04-26T15:41:33.809Z,7.53
2019-04-26T15:44:07.802Z,6.20
2019-04-26T15:46:42.569Z,8.13
2019-04-26T15:49:17.312Z,7.60
2019-04-26T15:51:46.539Z,8.30
2019-04-26T15:54:17.858Z,6.47
2019-04-26T15:56:49.280Z,7.23
2019-04-26T15:59:22.723Z,6.80
2019-04-26T16:01:51.850Z,6.60
2019-04-26T16:04:22.213Z,5.90
2019-04-26T16:06:52.769Z,5.50
2019-04-26T16:09:24.658Z,5.87
2019-04-26T16:11:55.272Z,5.27
2019-04-26T16:14:30.967Z,5.60
2019-04-26T16:16:58.336Z,5.90
2019-04-26T16:19:27.837Z,5.80
2019-04-26T16:21:57.300Z,5.93
2019-04-26T16:24:27.906Z,6.20
2019-04-26T16:26:57.854Z,5.20
2019-04-26T16:29:28.896Z,6.60
2019-04-26T16:32:16.950Z,6.20
2019-04-26T16:34:49.045Z,5.73
2019-04-26T16:39:49.603Z,6.20
2019-04-26T16:42:20.245Z,6.23
2019-04-26T16:44:49.626Z,6.10
2019-04-26T16:47:19.036Z,5.50
2019-04-26T16:49:48.407Z,6.17
2019-04-26T16:52:17.792Z,6.47
2019-04-26T16:54:47.148Z,6.10
2019-04-26T16:57:16.622Z,5.30
2019-04-26T16:59:51.063Z,5.53
2019-04-26T17:02:25.646Z,6.00
2019-04-26T17:04:48.244Z,6.10
2019-04-26T17:07:22.034Z,6.13
2019-04-26T17:09:37.221Z,6.10
2019-04-26T17:09:57.688Z,5.90
2019-04-26T17:12:20.579Z,5.23
2019-04-26T17:14:49.886Z,5.50
2019-04-26T17:17:19.199Z,5.80
2019-04-26T17:19:48.564Z,5.90
2019-04-26T17:22:19.611Z,5.50
2019-04-26T17:24:50.628Z,6.33
2019-04-26T17:27:22.843Z,6.50
2019-04-26T17:29:52.804Z,6.90
2019-04-26T17:32:23.217Z,5.93
2019-04-26T17:34:54.592Z,5.97
2019-04-26T17:37:26.582Z,5.73
2019-04-26T17:39:55.512Z,5.13
2019-04-26T17:42:29.260Z,5.50
2019-04-26T17:44:57.643Z,6.40
2019-04-26T17:47:28.282Z,6.60
2019-04-26T17:50:04.546Z,7.73
2019-04-26T17:52:35.783Z,7.23
2019-04-26T17:55:00.552Z,7.50
2019-04-26T17:57:36.558Z,8.13
2019-04-26T18:00:07.446Z,8.87
2019-04-26T18:02:42.174Z,6.63
2019-04-26T18:05:07.241Z,6.80
2019-04-26T18:07:43.290Z,6.40
2019-04-26T18:10:08.435Z,6.07
2019-04-26T18:12:40.962Z,5.50
2019-04-26T18:15:14.341Z,5.50
2019-04-26T18:17:44.198Z,5.53
2019-04-26T18:20:23.393Z,6.40
2019-04-26T18:22:55.445Z,6.20
2019-04-26T18:25:24.808Z,5.70
2019-04-26T18:27:54.515Z,5.57
2019-04-26T18:30:25.555Z,5.97
2019-04-26T18:32:55.007Z,5.53
2019-04-26T18:35:24.522Z,5.77
2019-04-26T18:37:53.926Z,5.77
2019-04-26T18:40:23.490Z,4.97
2019-04-26T18:42:55.022Z,5.50
2019-04-26T18:45:28.885Z,5.37
2019-04-26T18:48:01.039Z,5.57
2019-04-26T18:50:28.399Z,5.53
2019-04-26T18:53:04.585Z,4.53
2019-04-26T18:55:34.562Z,5.00
2019-04-26T18:58:05.613Z,4.90
2019-04-26T19:00:36.826Z,4.53
2019-04-26T19:03:08.885Z,4.07
2019-04-26T19:05:39.471Z,3.80
2019-04-26T19:08:10.261Z,3.70
2019-04-26T19:10:39.601Z,3.77
2019-04-26T19:13:25.611Z,4.07
2019-04-26T19:15:56.648Z,3.70
2019-04-26T19:18:33.601Z,3.23
2019-04-26T19:21:19.102Z,3.23
2019-04-26T19:23:48.508Z,3.93
2019-04-26T19:26:30.098Z,3.20
2019-04-26T19:28:49.008Z,3.37
2019-04-26T19:31:19.274Z,3.50
2019-04-26T19:33:51.704Z,3.87
2019-04-26T19:36:22.694Z,3.27
2019-04-26T19:38:53.143Z,3.10
2019-04-26T19:41:22.842Z,3.00
2019-04-26T19:43:55.422Z,3.10
2019-04-26T19:46:26.420Z,3.40
2019-04-26T19:49:14.428Z,3.60
2019-04-26T19:51:45.160Z,3.50
2019-04-26T19:54:27.677Z,3.50
2019-04-26T19:57:12.734Z,3.53
2019-04-26T19:59:42.379Z,3.50
2019-04-26T20:02:12.790Z,3.60
2019-04-26T20:04:42.399Z,3.70
2019-04-26T20:07:11.781Z,3.87
2019-04-26T20:09:41.994Z,4.57
2019-04-26T20:12:12.228Z,4.50
2019-04-26T20:14:49.101Z,4.10
2019-04-26T20:17:19.808Z,5.10
2019-04-26T20:19:47.800Z,4.80
2019-04-26T20:22:15.393Z,5.77
2019-04-26T20:24:48.669Z,5.77
2019-04-26T20:27:20.592Z,5.77
2019-04-26T20:29:47.646Z,6.33
2019-04-26T20:32:34.677Z,5.93
2019-04-26T20:35:19.594Z,6.40
2019-04-26T20:37:48.252Z,6.50
2019-04-26T20:40:22.470Z,6.47
2019-04-26T20:42:49.120Z,6.33
2019-04-26T20:45:18.516Z,6.70
2019-04-26T20:47:51.889Z,6.67
2019-04-26T20:50:18.987Z,7.07
2019-04-26T20:52:55.512Z,7.33
2019-04-26T20:55:25.172Z,7.00
2019-04-26T20:57:52.037Z,7.17
2019-04-26T21:00:22.551Z,7.37
2019-04-26T21:02:54.186Z,7.47
2019-04-26T21:05:24.037Z,6.93
2019-04-26T21:07:55.060Z,6.97
2019-04-26T21:10:25.714Z,6.77
2019-04-26T21:12:55.327Z,7.40
2019-04-26T21:15:26.447Z,7.33
2019-04-26T21:17:56.754Z,7.03
2019-04-26T21:20:27.760Z,7.50
2019-04-26T21:23:02.377Z,7.13
2019-04-26T21:25:35.504Z,7.50
2019-04-26T21:28:14.931Z,7.97
2019-04-26T21:30:54.891Z,7.40
2019-04-26T21:33:28.822Z,6.77
2019-04-26T21:36:07.525Z,7.30
2019-04-26T21:38:41.471Z,7.60
2019-04-26T21:41:13.989Z,8.17
2019-04-26T21:44:03.306Z,6.70
2019-04-26T21:46:33.931Z,7.33
2019-04-26T21:49:03.722Z,7.87
2019-04-26T21:51:34.005Z,7.60
2019-04-26T21:54:03.931Z,7.40
2019-04-26T21:56:33.844Z,8.20
2019-04-26T21:59:03.779Z,8.17
2019-04-26T22:01:33.414Z,7.40
2019-04-26T22:04:03.141Z,7.70
2019-04-26T22:06:33.455Z,7.37
2019-04-26T22:09:10.616Z,7.53
2019-04-26T22:11:40.302Z,7.47
2019-04-26T22:14:20.234Z,8.07
2019-04-26T22:16:53.350Z,7.83
2019-04-26T22:19:43.316Z,7.60
2019-04-26T22:22:17.094Z,7.57
2019-04-26T22:24:48.126Z,7.23
2019-04-26T22:27:21.626Z,7.47
2019-04-26T22:29:51.849Z,7.43
2019-04-26T22:32:20.297Z,7.47
2019-04-26T22:34:49.685Z,7.40
2019-04-26T22:37:29.625Z,7.67
2019-04-26T22:39:50.119Z,8.00
2019-04-26T22:42:19.963Z,7.83
2019-04-26T22:45:03.303Z,7.73
2019-04-26T22:47:42.750Z,8.47
2019-04-26T22:50:14.084Z,8.10
2019-04-26T22:52:46.655Z,7.87
2019-04-26T22:55:17.658Z,7.53
2019-04-26T22:57:49.502Z,7.53
2019-04-26T23:00:20.073Z,7.90
2019-04-26T23:02:48.097Z,7.13
2019-04-26T23:05:17.411Z,8.13
2019-04-26T23:07:46.783Z,7.73
2019-04-26T23:10:17.183Z,7.27
2019-04-26T23:12:57.885Z,6.67
2019-04-26T23:15:31.181Z,6.77
2019-04-26T23:18:03.717Z,6.50
2019-04-26T23:20:44.556Z,6.40
2019-04-26T23:23:13.963Z,6.57
2019-04-26T23:25:43.569Z,6.20
2019-04-26T23:28:12.992Z,6.53
2019-04-26T23:30:46.272Z,6.40
2019-04-26T23:33:15.567Z,6.10
2019-04-26T23:35:47.566Z,6.87
2019-04-26T23:38:16.188Z,6.17
2019-04-26T23:40:45.549Z,6.30
2019-04-26T23:43:14.856Z,6.60
2019-04-26T23:45:48.323Z,6.20
2019-04-26T23:48:15.459Z,6.07
2019-04-26T23:50:44.748Z,6.10
2019-04-26T23:53:14.143Z,6.83
2019-04-26T23:55:45.205Z,6.97
2019-04-26T23:58:14.753Z,5.83
